createdAt,value
2022-10-04T00:00:12.977Z,100.00
2022-10-04T00:02:47.067Z,100.00
2022-10-04T00:05:17.730Z,100.00
2022-10-04T00:07:49.188Z,100.00
2022-10-04T00:10:20.938Z,100.00
2022-10-04T00:12:59.771Z,100.00
2022-10-04T00:15:30.843Z,100.00
2022-10-04T00:18:12.313Z,100.00
2022-10-04T00:20:51.027Z,100.00
2022-10-04T00:23:23.565Z,100.00
2022-10-04T00:26:01.815Z,100.00
2022-10-04T00:28:36.322Z,100.00
2022-10-04T00:31:06.074Z,100.00
2022-10-04T00:33:44.187Z,100.00
2022-10-04T00:36:25.962Z,100.00
2022-10-04T00:39:33.892Z,100.00
2022-10-04T00:42:17.753Z,100.00
2022-10-04T00:45:01.227Z,100.00
2022-10-04T00:47:45.931Z,100.00
2022-10-04T00:50:27.293Z,100.00
2022-10-04T00:52:57.597Z,100.00
2022-10-04T00:55:34.660Z,100.00
2022-10-04T00:58:07.364Z,100.00
2022-10-04T01:00:36.283Z,100.00
2022-10-04T01:03:10.530Z,100.00
2022-10-04T01:05:42.485Z,100.00
2022-10-04T01:08:13.959Z,100.00
2022-10-04T01:10:55.656Z,100.00
2022-10-04T01:13:30.852Z,100.00
2022-10-04T01:16:03.668Z,100.00
2022-10-04T01:18:33.411Z,100.00
2022-10-04T01:21:28.509Z,100.00
2022-10-04T01:23:57.985Z,100.00
2022-10-04T01:26:30.449Z,100.00
2022-10-04T01:28:58.966Z,100.00
2022-10-04T01:31:30.459Z,100.00
2022-10-04T01:33:57.655Z,100.00
2022-10-04T01:36:24.183Z,100.00
2022-10-04T01:38:51.326Z,100.00
2022-10-04T01:41:22.398Z,100.00
2022-10-04T01:43:52.546Z,100.00
2022-10-04T01:46:24.963Z,100.00
2022-10-04T01:48:54.396Z,100.00
2022-10-04T01:51:26.394Z,100.00
2022-10-04T01:54:05.858Z,100.00
2022-10-04T01:56:37.717Z,100.00
2022-10-04T01:59:13.927Z,100.00
2022-10-04T02:01:59.264Z,100.00
2022-10-04T02:04:34.115Z,100.00
2022-10-04T02:07:03.437Z,100.00
2022-10-04T02:09:34.165Z,100.00
2022-10-04T02:12:01.618Z,100.00
2022-10-04T02:14:33.257Z,100.00
2022-10-04T02:17:03.301Z,100.00
2022-10-04T02:19:41.555Z,100.00
2022-10-04T02:22:10.852Z,100.00
2022-10-04T02:24:42.258Z,100.00
2022-10-04T02:27:08.888Z,100.00
2022-10-04T02:29:35.636Z,100.00
2022-10-04T02:32:24.258Z,100.00
2022-10-04T02:34:51.734Z,100.00
2022-10-04T02:37:18.567Z,100.00
2022-10-04T02:39:53.520Z,100.00
2022-10-04T02:42:41.494Z,100.00
2022-10-04T02:45:19.475Z,100.00
2022-10-04T02:47:52.638Z,100.00
2022-10-04T02:50:36.167Z,100.00
2022-10-04T02:53:24.991Z,100.00
2022-10-04T02:55:52.046Z,100.00
2022-10-04T02:58:22.341Z,100.00
2022-10-04T03:01:00.371Z,100.00
2022-10-04T03:03:32.902Z,100.00
2022-10-04T03:06:41.796Z,100.00
2022-10-04T03:09:09.055Z,100.00
2022-10-04T03:11:40.612Z,100.00
2022-10-04T03:18:12.903Z,100.00
2022-10-04T03:20:58.760Z,100.00
2022-10-04T03:23:25.265Z,100.00
2022-10-04T03:26:29.036Z,100.00
2022-10-04T03:28:58.016Z,100.00
2022-10-04T03:31:27.750Z,100.00
2022-10-04T03:33:57.038Z,100.00
2022-10-04T03:36:26.387Z,100.00
2022-10-04T03:38:56.259Z,100.00
2022-10-04T03:41:25.931Z,100.00
2022-10-04T03:43:54.854Z,100.00
2022-10-04T03:46:23.657Z,100.00
2022-10-04T03:48:52.074Z,100.00
2022-10-04T03:51:27.239Z,100.00
2022-10-04T03:53:59.337Z,100.00
2022-10-04T03:56:29.647Z,100.00
2022-10-04T03:58:57.149Z,100.00
2022-10-04T04:01:49.049Z,100.00
2022-10-04T04:04:34.846Z,100.00
2022-10-04T04:07:05.447Z,100.00
2022-10-04T04:09:41.131Z,100.00
2022-10-04T04:12:14.927Z,100.00
2022-10-04T04:14:42.679Z,100.00
2022-10-04T04:17:27.571Z,100.00
2022-10-04T04:20:07.468Z,100.00
2022-10-04T04:22:36.208Z,100.00
2022-10-04T04:25:08.209Z,100.00
2022-10-04T04:27:40.549Z,100.00
2022-10-04T04:30:08.902Z,100.00
2022-10-04T04:32:41.576Z,100.00
2022-10-04T04:35:22.118Z,100.00
2022-10-04T04:38:17.381Z,100.00
2022-10-04T04:40:44.626Z,100.00
2022-10-04T04:43:18.095Z,100.00
2022-10-04T04:45:54.905Z,100.00
2022-10-04T04:48:32.779Z,100.00
2022-10-04T04:50:59.289Z,100.00
2022-10-04T04:53:30.453Z,100.00
2022-10-04T04:56:05.469Z,100.00
2022-10-04T04:58:35.656Z,100.00
2022-10-04T05:01:22.817Z,100.00
2022-10-04T05:04:02.887Z,100.00
2022-10-04T05:06:31.119Z,100.00
2022-10-04T05:08:57.572Z,100.00
2022-10-04T05:11:29.226Z,100.00
2022-10-04T05:14:05.822Z,100.00
2022-10-04T05:17:01.715Z,100.00
2022-10-04T05:19:32.765Z,100.00
2022-10-04T05:22:02.483Z,100.00
2022-10-04T05:24:33.396Z,100.00
2022-10-04T05:27:07.648Z,100.00
2022-10-04T05:29:38.210Z,100.00
2022-10-04T05:32:27.065Z,100.00
2022-10-04T05:34:54.613Z,100.00
2022-10-04T05:38:06.034Z,100.00
2022-10-04T05:41:06.703Z,100.00
2022-10-04T05:43:38.704Z,100.00
2022-10-04T05:46:20.497Z,100.00
2022-10-04T05:48:52.633Z,100.00
2022-10-04T05:51:24.693Z,100.00
2022-10-04T05:53:52.303Z,100.00
2022-10-04T05:56:18.703Z,100.00
2022-10-04T05:59:05.876Z,100.00
2022-10-04T06:01:50.821Z,100.00
2022-10-04T06:04:45.487Z,100.00
2022-10-04T06:07:11.827Z,100.00
2022-10-04T06:09:53.510Z,100.00
2022-10-04T06:12:30.260Z,100.00
2022-10-04T06:15:03.604Z,100.00
2022-10-04T06:18:02.113Z,100.00
2022-10-04T06:20:46.782Z,100.00
2022-10-04T06:23:18.602Z,100.00
2022-10-04T06:26:00.541Z,100.00
2022-10-04T06:28:45.452Z,100.00
2022-10-04T06:31:45.936Z,100.00
2022-10-04T06:34:48.135Z,100.00
2022-10-04T06:37:38.389Z,100.00
2022-10-04T06:40:28.553Z,100.00
2022-10-04T06:43:07.314Z,100.00
2022-10-04T06:45:56.807Z,100.00
2022-10-04T06:48:42.082Z,100.00
2022-10-04T06:51:33.034Z,100.00
2022-10-04T06:54:24.405Z,100.00
2022-10-04T06:57:31.563Z,100.00
2022-10-04T07:00:19.316Z,100.00
2022-10-04T07:03:09.417Z,100.00
2022-10-04T07:05:45.911Z,100.00
2022-10-04T07:08:30.894Z,100.00
2022-10-04T07:11:06.527Z,100.00
2022-10-04T07:14:03.831Z,100.00
2022-10-04T07:16:56.332Z,100.00
2022-10-04T07:19:33.686Z,100.00
2022-10-04T07:22:06.309Z,100.00
2022-10-04T07:24:50.868Z,100.00
2022-10-04T07:27:24.104Z,100.00
2022-10-04T07:30:00.494Z,100.00
2022-10-04T07:32:29.879Z,100.00
2022-10-04T07:35:16.899Z,100.00
2022-10-04T07:38:12.549Z,100.00
2022-10-04T07:40:51.719Z,100.00
2022-10-04T07:43:27.385Z,100.00
2022-10-04T07:46:03.686Z,100.00
2022-10-04T07:48:30.303Z,100.00
2022-10-04T07:51:29.520Z,100.00
2022-10-04T07:54:12.696Z,100.00
2022-10-04T07:56:58.838Z,100.00
2022-10-04T07:59:29.661Z,99.05
2022-10-04T08:02:13.645Z,98.78
2022-10-04T08:04:57.091Z,98.39
2022-10-04T08:07:43.262Z,96.65
2022-10-04T08:10:34.465Z,94.42
2022-10-04T08:13:20.310Z,92.94
2022-10-04T08:15:46.893Z,93.43
2022-10-04T08:18:25.530Z,91.21
2022-10-04T08:21:02.036Z,91.19
2022-10-04T08:23:44.021Z,90.08
2022-10-04T08:26:41.584Z,90.19
2022-10-04T08:29:45.168Z,85.46
2022-10-04T08:32:14.528Z,85.31
2022-10-04T08:35:03.073Z,85.48
2022-10-04T08:37:35.769Z,86.85
2022-10-04T08:40:32.872Z,86.53
2022-10-04T08:43:08.465Z,84.40
2022-10-04T08:45:44.214Z,84.67
2022-10-04T08:48:44.654Z,84.26
2022-10-04T08:51:45.001Z,83.26
2022-10-04T08:54:13.569Z,83.04
2022-10-04T08:57:02.596Z,82.08
2022-10-04T08:59:45.457Z,82.04
2022-10-04T09:02:37.464Z,81.34
2022-10-04T09:05:41.623Z,80.78
2022-10-04T09:08:32.268Z,82.01
2022-10-04T09:11:19.865Z,80.51
2022-10-04T09:14:20.445Z,79.13
2022-10-04T09:17:18.582Z,78.34
2022-10-04T09:20:38.612Z,79.18
2022-10-04T09:23:37.989Z,78.07
2022-10-04T09:26:13.894Z,77.49
2022-10-04T09:29:04.630Z,77.61
2022-10-04T09:31:40.714Z,76.25
2022-10-04T09:34:23.308Z,77.30
2022-10-04T09:37:01.909Z,77.45
2022-10-04T09:39:46.846Z,78.62
2022-10-04T09:42:50.658Z,76.94
2022-10-04T09:45:28.853Z,74.92
2022-10-04T09:48:25.077Z,75.98
2022-10-04T09:51:08.328Z,76.56
2022-10-04T09:53:51.848Z,74.62
2022-10-04T09:56:46.123Z,72.53
2022-10-04T09:59:54.173Z,71.40
2022-10-04T10:02:48.715Z,69.72
2022-10-04T10:05:52.956Z,69.73
2022-10-04T10:08:41.198Z,68.33
2022-10-04T10:11:52.729Z,68.88
2022-10-04T10:14:21.777Z,68.71
2022-10-04T10:17:16.117Z,68.01
2022-10-04T10:20:09.056Z,67.51
2022-10-04T10:23:14.354Z,68.52
2022-10-04T10:25:48.894Z,67.61
2022-10-04T10:28:51.744Z,67.56
2022-10-04T10:31:18.242Z,66.91
2022-10-04T10:34:03.228Z,67.20
2022-10-04T10:37:06.938Z,66.57
2022-10-04T10:39:46.624Z,66.76
2022-10-04T10:42:28.159Z,65.97
2022-10-04T10:45:09.358Z,66.57
2022-10-04T10:47:45.473Z,66.39
2022-10-04T10:50:58.509Z,67.14
2022-10-04T10:53:41.444Z,66.15
2022-10-04T10:56:45.902Z,64.57
2022-10-04T10:59:51.185Z,64.75
2022-10-04T11:02:48.816Z,64.34
2022-10-04T11:05:22.292Z,63.41
2022-10-04T11:07:57.826Z,64.78
2022-10-04T11:11:08.629Z,63.75
2022-10-04T11:14:11.804Z,64.12
2022-10-04T11:17:15.855Z,61.45
2022-10-04T11:20:24.301Z,61.59
2022-10-04T11:23:15.023Z,60.50
2022-10-04T11:26:19.823Z,58.91
2022-10-04T11:28:58.969Z,58.43
2022-10-04T11:31:45.784Z,57.58
2022-10-04T11:34:48.218Z,58.67
2022-10-04T11:37:36.752Z,58.13
2022-10-04T11:40:27.200Z,57.16
2022-10-04T11:43:23.740Z,57.13
2022-10-04T11:46:11.188Z,58.09
2022-10-04T11:48:37.811Z,57.12
2022-10-04T11:51:27.205Z,56.70
2022-10-04T11:54:07.511Z,58.00
2022-10-04T11:56:57.294Z,56.65
2022-10-04T11:59:30.503Z,55.96
2022-10-04T12:02:28.378Z,56.17
2022-10-04T12:05:15.610Z,56.98
2022-10-04T12:07:50.934Z,56.43
2022-10-04T12:10:40.339Z,56.27
2022-10-04T12:13:14.317Z,56.87
2022-10-04T12:16:06.623Z,56.50
2022-10-04T12:18:49.348Z,54.61
2022-10-04T12:21:40.965Z,56.58
2022-10-04T12:24:36.942Z,56.29
2022-10-04T12:27:09.280Z,56.81
2022-10-04T12:29:36.383Z,56.60
2022-10-04T12:32:08.816Z,57.33
2022-10-04T12:34:46.771Z,57.11
2022-10-04T12:37:20.681Z,57.58
2022-10-04T12:40:10.372Z,56.98
2022-10-04T12:42:46.815Z,56.85
2022-10-04T12:45:22.320Z,57.54
2022-10-04T12:48:28.405Z,56.34
2022-10-04T12:51:29.007Z,56.83
2022-10-04T12:54:26.381Z,57.54
2022-10-04T12:57:11.069Z,57.21
2022-10-04T12:59:51.682Z,56.86
2022-10-04T13:02:21.187Z,56.20
2022-10-04T13:04:53.025Z,57.55
2022-10-04T13:07:35.896Z,57.53
2022-10-04T13:10:29.791Z,58.23
2022-10-04T13:13:14.426Z,58.36
2022-10-04T13:18:42.024Z,59.46
2022-10-04T13:21:14.634Z,59.54
2022-10-04T13:23:59.633Z,59.63
2022-10-04T13:26:46.907Z,59.34
2022-10-04T13:29:33.583Z,59.70
2022-10-04T13:32:17.173Z,60.23
2022-10-04T13:34:54.668Z,59.93
2022-10-04T13:37:53.240Z,60.70
2022-10-04T13:40:32.533Z,60.84
2022-10-04T13:43:23.487Z,61.00
2022-10-04T13:46:06.337Z,61.34
2022-10-04T13:49:00.977Z,61.36
2022-10-04T13:52:11.951Z,60.73
2022-10-04T13:55:09.411Z,61.12
2022-10-04T13:58:07.878Z,61.30
2022-10-04T14:01:06.595Z,62.25
2022-10-04T14:03:55.704Z,62.24
2022-10-04T14:06:25.061Z,61.71
2022-10-04T14:09:13.650Z,61.97
2022-10-04T14:11:50.095Z,61.40
2022-10-04T14:14:54.292Z,60.76
2022-10-04T14:18:01.088Z,61.14
2022-10-04T14:20:50.507Z,60.13
2022-10-04T14:24:03.436Z,60.12
2022-10-04T14:27:01.034Z,60.38
2022-10-04T14:29:36.421Z,60.15
2022-10-04T14:32:41.605Z,60.70
2022-10-04T14:35:35.468Z,60.98
2022-10-04T14:38:10.844Z,60.82
2022-10-04T14:40:55.890Z,60.64
2022-10-04T14:44:00.046Z,61.13
2022-10-04T14:46:45.130Z,60.78
2022-10-04T14:49:25.044Z,61.27
2022-10-04T14:52:02.284Z,61.50
2022-10-04T14:54:50.369Z,61.86
2022-10-04T14:57:50.173Z,61.96
2022-10-04T15:00:55.674Z,62.57
2022-10-04T15:03:40.567Z,62.29
2022-10-04T15:06:12.031Z,62.36
2022-10-04T15:08:41.501Z,61.98
2022-10-04T15:11:13.616Z,62.19
2022-10-04T15:13:48.979Z,62.47
2022-10-04T15:16:46.045Z,63.10
2022-10-04T15:19:21.702Z,62.78
2022-10-04T15:22:20.013Z,62.56
2022-10-04T15:24:52.171Z,62.82
2022-10-04T15:27:27.655Z,62.62
2022-10-04T15:30:00.837Z,62.91
2022-10-04T15:32:39.135Z,63.17
2022-10-04T15:35:21.121Z,63.20
2022-10-04T15:37:50.622Z,63.08
2022-10-04T15:40:40.015Z,63.56
2022-10-04T15:43:27.171Z,63.95
2022-10-04T15:46:16.637Z,64.25
2022-10-04T15:48:55.144Z,64.94
2022-10-04T15:51:42.448Z,64.66
2022-10-04T15:54:43.215Z,65.11
2022-10-04T15:57:29.928Z,65.62
2022-10-04T16:00:11.688Z,65.23
2022-10-04T16:02:57.827Z,64.99
2022-10-04T16:05:59.861Z,66.29
2022-10-04T16:08:49.441Z,67.26
2022-10-04T16:11:15.802Z,67.49
2022-10-04T16:13:56.812Z,67.68
2022-10-04T16:16:50.704Z,67.49
2022-10-04T16:19:22.932Z,67.91
2022-10-04T16:21:52.887Z,69.60
2022-10-04T16:24:22.265Z,69.95
2022-10-04T16:26:50.417Z,70.35
2022-10-04T16:29:45.358Z,71.48
2022-10-04T16:32:19.979Z,71.43
2022-10-04T16:34:53.068Z,72.28
2022-10-04T16:37:31.628Z,72.28
2022-10-04T16:40:03.357Z,72.88
2022-10-04T16:43:01.312Z,73.73
2022-10-04T16:45:35.222Z,73.28
2022-10-04T16:48:23.341Z,73.15
2022-10-04T16:51:04.900Z,74.13
2022-10-04T16:53:37.251Z,76.66
2022-10-04T16:56:16.456Z,78.24
2022-10-04T16:58:49.807Z,78.28
2022-10-04T17:01:22.283Z,78.53
2022-10-04T17:04:29.465Z,79.60
2022-10-04T17:06:58.732Z,79.91
2022-10-04T17:10:05.929Z,81.35
2022-10-04T17:12:36.903Z,83.78
2022-10-04T17:15:27.575Z,84.28
2022-10-04T17:18:08.782Z,85.02
2022-10-04T17:20:41.281Z,85.51
2022-10-04T17:23:45.207Z,86.03
2022-10-04T17:26:44.280Z,86.89
2022-10-04T17:29:25.959Z,86.72
2022-10-04T17:32:01.183Z,87.08
2022-10-04T17:34:54.699Z,87.96
2022-10-04T17:37:41.007Z,87.80
2022-10-04T17:40:12.326Z,88.06
2022-10-04T17:43:19.572Z,88.94
2022-10-04T17:45:58.187Z,88.97
2022-10-04T17:48:47.245Z,89.48
2022-10-04T17:51:41.335Z,89.62
2022-10-04T17:57:49.868Z,90.04
2022-10-04T18:00:23.786Z,91.09
2022-10-04T18:03:05.489Z,90.60
2022-10-04T18:05:35.282Z,90.74
2022-10-04T18:08:17.827Z,91.19
2022-10-04T18:11:03.625Z,90.95
2022-10-04T18:13:49.385Z,90.78
2022-10-04T18:16:45.873Z,91.29
2022-10-04T18:19:37.542Z,90.26
2022-10-04T18:22:09.996Z,91.12
2022-10-04T18:24:36.478Z,90.29
2022-10-04T18:27:18.403Z,90.03
2022-10-04T18:30:11.041Z,90.53
2022-10-04T18:32:48.383Z,89.06
2022-10-04T18:35:26.696Z,89.65
2022-10-04T18:37:56.432Z,89.39
2022-10-04T18:40:28.640Z,88.14
2022-10-04T18:42:57.765Z,87.89
2022-10-04T18:45:29.768Z,88.17
2022-10-04T18:47:59.301Z,87.36
2022-10-04T18:50:43.614Z,87.63
2022-10-04T18:53:16.115Z,89.22
2022-10-04T18:56:03.476Z,89.50
2022-10-04T18:58:54.599Z,89.23
2022-10-04T19:02:01.787Z,89.20
2022-10-04T19:04:49.870Z,88.75
2022-10-04T19:07:33.056Z,89.25
2022-10-04T19:10:54.720Z,89.51
2022-10-04T19:13:23.977Z,88.33
2022-10-04T19:16:21.079Z,88.90
2022-10-04T19:18:47.787Z,87.82
2022-10-04T19:21:23.540Z,87.63
2022-10-04T19:24:11.492Z,88.80
2022-10-04T19:26:49.773Z,88.45
2022-10-04T19:29:26.442Z,88.29
2022-10-04T19:32:00.238Z,89.51
2022-10-04T19:34:56.321Z,90.24
2022-10-04T19:37:30.134Z,91.20
2022-10-04T19:40:09.821Z,90.33
2022-10-04T19:42:57.812Z,90.19
2022-10-04T19:46:02.278Z,89.36
2022-10-04T19:48:36.410Z,90.42
2022-10-04T19:51:27.017Z,89.44
2022-10-04T19:54:00.363Z,88.43
2022-10-04T19:56:31.437Z,89.00
2022-10-04T19:59:10.315Z,88.74
2022-10-04T20:01:37.407Z,89.75
2022-10-04T20:04:33.353Z,89.24
2022-10-04T20:07:19.605Z,90.67
2022-10-04T20:09:55.214Z,91.26
2022-10-04T20:12:37.271Z,90.12
2022-10-04T20:15:43.290Z,90.30
2022-10-04T20:18:41.952Z,90.51
2022-10-04T20:21:11.495Z,90.98
2022-10-04T20:23:40.729Z,91.02
2022-10-04T20:26:09.261Z,90.43
2022-10-04T20:28:40.141Z,91.09
2022-10-04T20:31:08.431Z,91.14
2022-10-04T20:33:34.897Z,91.62
2022-10-04T20:36:32.174Z,92.80
2022-10-04T20:39:03.544Z,92.29
2022-10-04T20:41:48.952Z,91.81
2022-10-04T20:44:42.293Z,91.43
2022-10-04T20:47:42.040Z,91.28
2022-10-04T20:50:31.506Z,92.86
2022-10-04T20:53:02.815Z,93.23
2022-10-04T20:55:32.007Z,93.81
2022-10-04T20:58:01.337Z,93.28
2022-10-04T21:00:33.628Z,93.17
2022-10-04T21:03:18.514Z,92.16
2022-10-04T21:05:58.406Z,93.00
2022-10-04T21:08:26.389Z,93.17
2022-10-04T21:11:15.407Z,93.11
2022-10-04T21:13:54.009Z,93.25
2022-10-04T21:16:44.782Z,93.50
2022-10-04T21:19:33.362Z,93.44
2022-10-04T21:22:05.163Z,93.51
2022-10-04T21:24:38.881Z,94.00
2022-10-04T21:27:09.010Z,93.85
2022-10-04T21:29:35.534Z,94.10
2022-10-04T21:32:02.037Z,94.10
2022-10-04T21:34:51.880Z,93.84
2022-10-04T21:37:15.701Z,93.62
2022-10-04T21:39:42.374Z,94.03
2022-10-04T21:42:09.272Z,93.75
2022-10-04T21:47:56.393Z,93.81
2022-10-04T21:50:22.950Z,93.73
2022-10-04T21:52:52.807Z,93.44
2022-10-04T21:56:00.748Z,93.07
2022-10-04T21:58:27.194Z,93.44
2022-10-04T22:00:53.695Z,92.69
2022-10-04T22:03:20.189Z,92.69
2022-10-04T22:05:51.089Z,92.81
2022-10-04T22:08:17.563Z,92.20
2022-10-04T22:10:44.064Z,92.40
2022-10-04T22:13:10.561Z,91.92
2022-10-04T22:15:37.045Z,92.69
2022-10-04T22:18:03.700Z,92.88
2022-10-04T22:20:30.414Z,94.12
2022-10-04T22:22:58.171Z,92.93
2022-10-04T22:25:26.966Z,94.15
2022-10-04T22:27:53.965Z,93.74
2022-10-04T22:30:36.267Z,94.43
2022-10-04T22:33:32.590Z,94.79
2022-10-04T22:36:12.697Z,94.34
2022-10-04T22:38:40.232Z,95.23
2022-10-04T22:41:12.309Z,94.75
2022-10-04T22:43:39.130Z,93.24
2022-10-04T22:46:06.337Z,93.94
2022-10-04T22:48:33.057Z,93.84
2022-10-04T22:50:59.445Z,94.88
2022-10-04T22:53:25.884Z,95.31
2022-10-04T22:55:55.770Z,96.19
2022-10-04T22:58:22.328Z,96.83
2022-10-04T23:00:49.655Z,95.34
2022-10-04T23:03:30.790Z,95.85
2022-10-04T23:06:02.429Z,94.87
2022-10-04T23:08:29.589Z,93.85
2022-10-04T23:11:00.566Z,93.58
2022-10-04T23:13:27.429Z,92.86
2022-10-04T23:15:58.068Z,92.90
2022-10-04T23:18:24.541Z,92.72
2022-10-04T23:20:56.189Z,93.22
2022-10-04T23:23:22.654Z,92.27
2022-10-04T23:25:49.816Z,91.50
2022-10-04T23:28:18.836Z,91.26
2022-10-04T23:30:48.156Z,91.17
2022-10-04T23:33:19.670Z,91.52
2022-10-04T23:35:47.444Z,90.84
2022-10-04T23:38:16.546Z,90.25
2022-10-04T23:40:44.037Z,90.04
2022-10-04T23:43:18.298Z,90.37
2022-10-04T23:45:45.199Z,89.54
2022-10-04T23:48:17.233Z,90.31
2022-10-04T23:50:43.702Z,89.66
2022-10-04T23:53:17.124Z,89.29
2022-10-04T23:55:44.732Z,89.74
2022-10-04T23:58:15.669Z,90.14
